createdAt,value
2019-05-20T00:02:28.376Z,99768.27
2019-05-20T00:04:58.542Z,99763.11
2019-05-20T00:07:29.616Z,99770.04
2019-05-20T00:10:00.634Z,99768.95
2019-05-20T00:12:31.650Z,99779.89
2019-05-20T00:15:03.856Z,99776.06
2019-05-20T00:17:35.217Z,99778.88
2019-05-20T00:20:07.673Z,99780.06
2019-05-20T00:22:39.087Z,99780.06
2019-05-20T00:25:10.093Z,99770.81
2019-05-20T00:27:41.115Z,99766.48
2019-05-20T00:30:12.451Z,99760.81
2019-05-20T00:32:43.463Z,99763.80
2019-05-20T00:35:14.645Z,99761.22
2019-05-20T00:37:45.781Z,99764.37
2019-05-20T00:40:17.095Z,99755.90
2019-05-20T00:42:48.118Z,99758.38
2019-05-20T00:45:19.142Z,99752.10
2019-05-20T00:47:50.231Z,99743.59
2019-05-20T00:50:21.242Z,99746.05
2019-05-20T00:52:52.257Z,99740.31
2019-05-20T00:55:28.332Z,99746.69
2019-05-20T00:57:59.331Z,99746.07
2019-05-20T01:00:30.823Z,99741.87
2019-05-20T01:03:01.845Z,99744.41
2019-05-20T01:05:32.928Z,99746.98
2019-05-20T01:08:03.937Z,99748.53
2019-05-20T01:10:34.950Z,99750.19
2019-05-20T01:13:05.987Z,99745.43
2019-05-20T01:15:36.999Z,99739.55
2019-05-20T01:18:09.428Z,99747.62
2019-05-20T01:20:40.455Z,99743.83
2019-05-20T01:23:11.463Z,99735.98
2019-05-20T01:25:43.811Z,99742.26
2019-05-20T01:28:14.889Z,99732.95
2019-05-20T01:30:45.903Z,99738.09
2019-05-20T01:33:16.942Z,99726.58
2019-05-20T01:35:47.945Z,99725.38
2019-05-20T01:38:18.955Z,99723.72
2019-05-20T01:40:49.959Z,99726.74
2019-05-20T01:43:20.982Z,99726.02
2019-05-20T01:45:51.912Z,99721.73
2019-05-20T01:48:22.939Z,99723.45
2019-05-20T01:50:53.940Z,99719.06
2019-05-20T01:53:25.205Z,99719.51
2019-05-20T01:55:56.223Z,99713.33
2019-05-20T01:58:27.245Z,99710.90
2019-05-20T02:00:58.350Z,99712.02
2019-05-20T02:03:32.125Z,99713.95
2019-05-20T02:06:02.264Z,99719.06
2019-05-20T02:08:33.286Z,99723.81
2019-05-20T02:11:04.515Z,99714.98
2019-05-20T02:13:55.311Z,99714.58
2019-05-20T02:16:28.044Z,99705.09
2019-05-20T02:18:59.064Z,99694.19
2019-05-20T02:21:29.997Z,99689.82
2019-05-20T02:24:01.006Z,99692.83
2019-05-20T02:26:32.014Z,99690.13
2019-05-20T02:29:03.032Z,99685.48
2019-05-20T02:31:34.112Z,99686.84
2019-05-20T02:34:05.045Z,99691.95
2019-05-20T02:36:36.131Z,99691.23
2019-05-20T02:39:07.559Z,99691.78
2019-05-20T02:41:38.578Z,99692.44
2019-05-20T02:44:09.590Z,99688.09
2019-05-20T02:46:40.541Z,99685.88
2019-05-20T02:49:11.491Z,99698.72
2019-05-20T02:51:42.545Z,99685.02
2019-05-20T02:54:13.567Z,99685.85
2019-05-20T02:56:44.579Z,99689.19
2019-05-20T02:59:15.587Z,99686.63
2019-05-20T03:01:46.603Z,99681.82
2019-05-20T03:04:17.616Z,99680.09
2019-05-20T03:06:48.635Z,99680.11
2019-05-20T03:09:19.717Z,99684.39
2019-05-20T03:11:50.745Z,99685.53
2019-05-20T03:14:21.744Z,99680.34
2019-05-20T03:16:52.690Z,99684.45
2019-05-20T03:19:23.718Z,99688.07
2019-05-20T03:21:54.818Z,99687.53
2019-05-20T03:24:25.937Z,99693.30
2019-05-20T03:26:57.032Z,99693.80
2019-05-20T03:29:28.062Z,99685.53
2019-05-20T03:31:59.090Z,99683.34
2019-05-20T03:34:45.560Z,99681.85
2019-05-20T03:37:02.978Z,99667.93
2019-05-20T03:39:34.012Z,99664.94
2019-05-20T03:42:05.032Z,99667.07
2019-05-20T03:44:36.060Z,99666.59
2019-05-20T03:47:06.976Z,99662.58
2019-05-20T03:49:37.987Z,99656.99
2019-05-20T03:52:09.080Z,99651.19
2019-05-20T03:54:40.224Z,99652.63
2019-05-20T03:57:11.382Z,99648.77
2019-05-20T03:59:42.601Z,99642.02
2019-05-20T04:02:14.794Z,99644.06
2019-05-20T04:05:00.637Z,99647.72
2019-05-20T04:07:18.822Z,99643.44
2019-05-20T04:09:50.325Z,99639.88
2019-05-20T04:12:21.504Z,99631.94
2019-05-20T04:14:52.663Z,99636.83
2019-05-20T04:17:23.823Z,99629.48
2019-05-20T04:19:55.002Z,99632.30
2019-05-20T04:22:26.198Z,99638.02
2019-05-20T04:24:57.326Z,99625.53
2019-05-20T04:27:28.924Z,99633.97
2019-05-20T04:30:00.256Z,99635.46
2019-05-20T04:32:32.248Z,99638.58
2019-05-20T04:35:20.537Z,99633.78
2019-05-20T04:37:37.290Z,99632.52
2019-05-20T04:40:09.180Z,99634.50
2019-05-20T04:42:43.213Z,99639.27
2019-05-20T04:45:16.567Z,99642.49
2019-05-20T04:47:47.736Z,99639.52
2019-05-20T04:50:21.378Z,99640.53
2019-05-20T04:52:55.323Z,99639.23
2019-05-20T04:55:26.877Z,99635.22
2019-05-20T04:58:00.471Z,99632.67
2019-05-20T05:00:53.204Z,99626.86
2019-05-20T05:03:24.552Z,99631.94
2019-05-20T05:05:56.183Z,99640.20
2019-05-20T05:08:27.328Z,99637.87
2019-05-20T05:10:58.480Z,99641.17
2019-05-20T05:13:31.404Z,99644.92
2019-05-20T05:16:02.742Z,99636.06
2019-05-20T05:18:33.837Z,99639.64
2019-05-20T05:21:05.086Z,99641.11
2019-05-20T05:23:36.203Z,99646.73
2019-05-20T05:26:07.348Z,99637.59
2019-05-20T05:28:38.542Z,99645.33
2019-05-20T05:31:09.696Z,99644.41
2019-05-20T05:33:40.853Z,99646.45
2019-05-20T05:36:12.054Z,99637.56
2019-05-20T05:38:43.701Z,99644.63
2019-05-20T05:41:15.329Z,99631.99
2019-05-20T05:43:46.477Z,99626.50
2019-05-20T05:46:17.670Z,99616.96
2019-05-20T05:48:49.967Z,99613.23
2019-05-20T05:51:21.137Z,99611.45
2019-05-20T05:53:52.605Z,99619.42
2019-05-20T05:56:23.713Z,99619.91
2019-05-20T05:58:54.879Z,99611.00
2019-05-20T06:01:26.093Z,99610.31
2019-05-20T06:03:57.256Z,99605.17
2019-05-20T06:06:28.517Z,99607.98
2019-05-20T06:08:59.665Z,99606.96
2019-05-20T06:11:30.996Z,99603.30
2019-05-20T06:14:02.095Z,99592.42
2019-05-20T06:16:36.827Z,99585.62
2019-05-20T06:19:07.129Z,99587.11
2019-05-20T06:21:38.214Z,99590.02
2019-05-20T06:24:09.497Z,99595.56
2019-05-20T06:26:40.710Z,99603.02
2019-05-20T06:29:11.881Z,99599.25
2019-05-20T06:31:43.173Z,99596.06
2019-05-20T06:34:14.665Z,99587.66
2019-05-20T06:36:47.657Z,99587.00
2019-05-20T06:39:19.046Z,99578.39
2019-05-20T06:41:50.241Z,99568.74
2019-05-20T06:44:21.370Z,99573.27
2019-05-20T06:46:52.480Z,99569.91
2019-05-20T06:49:23.574Z,99568.55
2019-05-20T06:51:54.671Z,99567.46
2019-05-20T06:54:25.795Z,99566.12
2019-05-20T06:56:56.979Z,99564.93
2019-05-20T06:59:28.118Z,99554.45
2019-05-20T07:01:59.299Z,99558.27
2019-05-20T07:04:30.655Z,99562.53
2019-05-20T07:07:01.806Z,99563.89
2019-05-20T07:09:34.317Z,99558.61
2019-05-20T07:12:05.700Z,99559.31
2019-05-20T07:14:36.926Z,99553.56
2019-05-20T07:17:08.054Z,99558.96
2019-05-20T07:19:39.199Z,99549.09
2019-05-20T07:22:10.303Z,99559.41
2019-05-20T07:24:41.625Z,99556.76
2019-05-20T07:27:12.817Z,99555.92
2019-05-20T07:29:43.940Z,99552.75
2019-05-20T07:32:15.057Z,99546.13
2019-05-20T07:34:46.171Z,99548.42
2019-05-20T07:37:17.377Z,99546.31
2019-05-20T07:39:48.490Z,99546.91
2019-05-20T07:42:19.628Z,99541.45
2019-05-20T07:44:50.753Z,99543.89
2019-05-20T07:47:21.920Z,99544.24
2019-05-20T07:49:53.561Z,99547.70
2019-05-20T07:52:26.594Z,99538.91
2019-05-20T07:54:58.618Z,99544.93
2019-05-20T08:00:01.689Z,99548.19
2019-05-20T08:02:33.809Z,99540.47
2019-05-20T08:05:10.101Z,99536.13
2019-05-20T08:07:52.066Z,99535.64
2019-05-20T08:10:14.911Z,99536.82
2019-05-20T08:12:46.249Z,99547.25
2019-05-20T08:15:17.484Z,99546.91
2019-05-20T08:17:50.036Z,99538.68
2019-05-20T08:20:21.220Z,99537.52
2019-05-20T08:22:52.990Z,99543.50
2019-05-20T08:25:24.213Z,99540.07
2019-05-20T08:27:55.348Z,99543.20
2019-05-20T08:30:35.481Z,99534.22
2019-05-20T08:33:07.016Z,99527.44
2019-05-20T08:35:38.407Z,99521.75
2019-05-20T08:38:10.950Z,99517.66
2019-05-20T08:40:42.781Z,99524.80
2019-05-20T08:43:13.939Z,99530.67
2019-05-20T08:45:46.115Z,99534.30
2019-05-20T08:48:17.256Z,99532.06
2019-05-20T08:50:48.414Z,99538.64
2019-05-20T08:53:20.854Z,99528.32
2019-05-20T08:55:51.978Z,99525.00
2019-05-20T08:58:23.049Z,99533.51
2019-05-20T09:00:54.179Z,99533.16
2019-05-20T09:03:30.335Z,99528.47
2019-05-20T09:05:59.731Z,99532.70
2019-05-20T09:08:30.939Z,99536.13
2019-05-20T09:11:02.134Z,99539.48
2019-05-20T09:13:33.296Z,99535.94
2019-05-20T09:16:05.833Z,99530.40
2019-05-20T09:18:36.951Z,99518.91
2019-05-20T09:21:08.230Z,99519.54
2019-05-20T09:23:39.616Z,99516.55
2019-05-20T09:26:11.032Z,99516.14
2019-05-20T09:28:42.519Z,99515.38
2019-05-20T09:31:13.846Z,99512.28
2019-05-20T09:33:45.041Z,99504.44
2019-05-20T09:36:16.183Z,99511.72
2019-05-20T09:38:48.247Z,99515.03
2019-05-20T09:41:20.738Z,99511.97
2019-05-20T09:43:53.966Z,99513.66
2019-05-20T09:46:26.503Z,99517.65
2019-05-20T09:48:57.847Z,99507.92
2019-05-20T09:51:29.163Z,99514.75
2019-05-20T09:54:00.807Z,99515.78
2019-05-20T09:56:32.368Z,99521.47
2019-05-20T09:59:03.891Z,99526.55
2019-05-20T10:01:39.577Z,99527.37
2019-05-20T10:04:09.579Z,99520.65
2019-05-20T10:06:41.190Z,99513.02
2019-05-20T10:09:14.314Z,99511.39
2019-05-20T10:11:46.426Z,99517.65
2019-05-20T10:14:17.781Z,99517.52
2019-05-20T10:16:50.771Z,99515.09
2019-05-20T10:19:22.726Z,99507.93
2019-05-20T10:21:54.120Z,99512.27
2019-05-20T10:24:25.954Z,99517.86
2019-05-20T10:26:57.664Z,99512.73
2019-05-20T10:29:29.472Z,99514.27
2019-05-20T10:32:00.872Z,99514.18
2019-05-20T10:34:32.171Z,99508.33
2019-05-20T10:37:03.401Z,99507.11
2019-05-20T10:39:34.522Z,99510.00
2019-05-20T10:42:05.760Z,99509.40
2019-05-20T10:44:41.772Z,99505.13
2019-05-20T10:47:10.645Z,99503.28
2019-05-20T10:49:41.763Z,99492.13
2019-05-20T10:52:12.905Z,99485.01
2019-05-20T10:54:44.220Z,99481.55
2019-05-20T10:57:15.301Z,99477.12
2019-05-20T10:59:46.693Z,99481.38
2019-05-20T11:02:19.516Z,99491.54
2019-05-20T11:04:51.119Z,99515.44
2019-05-20T11:07:22.446Z,99519.13
2019-05-20T11:09:54.445Z,99521.47
2019-05-20T11:12:26.190Z,99535.50
2019-05-20T11:14:57.587Z,99527.05
2019-05-20T11:17:28.842Z,99528.02
2019-05-20T11:20:00.040Z,99525.14
2019-05-20T11:22:31.240Z,99532.48
2019-05-20T11:25:02.581Z,99536.47
2019-05-20T11:27:34.842Z,99533.36
2019-05-20T11:30:12.413Z,99535.14
2019-05-20T11:32:43.719Z,99531.66
2019-05-20T11:35:15.607Z,99535.37
2019-05-20T11:37:47.888Z,99522.75
2019-05-20T11:40:19.198Z,99536.72
2019-05-20T11:42:50.359Z,99536.00
2019-05-20T11:45:21.576Z,99525.78
2019-05-20T11:47:52.814Z,99521.14
2019-05-20T11:50:24.114Z,99506.86
2019-05-20T11:52:55.252Z,99507.41
2019-05-20T11:55:26.406Z,99504.63
2019-05-20T11:58:12.810Z,99505.28
2019-05-20T12:00:30.664Z,99512.63
2019-05-20T12:03:01.803Z,99515.21
2019-05-20T12:05:32.954Z,99507.65
2019-05-20T12:08:04.075Z,99508.13
2019-05-20T12:10:35.185Z,99501.20
2019-05-20T12:13:06.269Z,99492.27
2019-05-20T12:15:37.416Z,99495.85
2019-05-20T12:18:08.513Z,99506.77
2019-05-20T12:20:39.904Z,99496.02
2019-05-20T12:23:11.016Z,99499.47
2019-05-20T12:25:42.174Z,99495.83
2019-05-20T12:28:13.309Z,99486.41
2019-05-20T12:30:44.577Z,99492.28
2019-05-20T12:33:19.007Z,99497.89
2019-05-20T12:35:48.647Z,99505.24
2019-05-20T12:38:20.177Z,99493.02
2019-05-20T12:40:51.321Z,99478.41
2019-05-20T12:43:22.484Z,99478.61
2019-05-20T12:45:53.626Z,99478.37
2019-05-20T12:48:24.741Z,99486.61
2019-05-20T12:50:55.876Z,99488.98
2019-05-20T12:53:27.055Z,99484.59
2019-05-20T12:55:58.190Z,99491.20
2019-05-20T12:58:29.358Z,99480.89
2019-05-20T13:01:00.426Z,99479.73
2019-05-20T13:03:31.638Z,99484.67
2019-05-20T13:06:02.707Z,99475.30
2019-05-20T13:08:33.869Z,99469.94
2019-05-20T13:11:04.982Z,99471.14
2019-05-20T13:13:36.167Z,99476.21
2019-05-20T13:16:07.318Z,99465.16
2019-05-20T13:18:54.685Z,99474.39
2019-05-20T13:21:11.450Z,99463.62
2019-05-20T13:23:42.654Z,99461.12
2019-05-20T13:26:13.778Z,99472.75
2019-05-20T13:28:45.774Z,99453.13
2019-05-20T13:31:16.911Z,99455.48
2019-05-20T13:33:47.999Z,99452.02
2019-05-20T13:36:19.121Z,99460.66
2019-05-20T13:38:50.351Z,99448.67
2019-05-20T13:41:21.531Z,99469.17
2019-05-20T13:43:52.713Z,99463.42
2019-05-20T13:46:23.828Z,99460.94
2019-05-20T13:48:54.992Z,99469.19
2019-05-20T13:51:26.124Z,99467.84
2019-05-20T13:53:57.244Z,99469.83
2019-05-20T13:56:28.685Z,99469.16
2019-05-20T13:58:59.810Z,99461.95
2019-05-20T14:01:31.070Z,99458.80
2019-05-20T14:04:02.179Z,99455.75
2019-05-20T14:06:33.332Z,99455.65
2019-05-20T14:09:07.645Z,99463.64
2019-05-20T14:11:38.760Z,99463.29
2019-05-20T14:14:13.829Z,99458.61
2019-05-20T14:16:42.732Z,99450.58
2019-05-20T14:19:13.848Z,99467.46
2019-05-20T14:21:44.961Z,99457.86
2019-05-20T14:24:16.102Z,99468.55
2019-05-20T14:26:48.246Z,99466.36
2019-05-20T14:29:19.350Z,99459.87
2019-05-20T14:31:50.565Z,99462.34
2019-05-20T14:34:21.765Z,99465.76
2019-05-20T14:36:53.194Z,99465.76
2019-05-20T14:39:25.437Z,99475.75
2019-05-20T14:41:56.622Z,99478.41
2019-05-20T14:44:27.746Z,99488.57
2019-05-20T14:46:58.915Z,99495.20
2019-05-20T14:49:30.119Z,99497.44
2019-05-20T14:52:01.250Z,99511.22
2019-05-20T14:54:32.400Z,99520.58
2019-05-20T14:57:03.595Z,99523.61
2019-05-20T14:59:34.759Z,99535.00
2019-05-20T15:02:05.966Z,99539.28
2019-05-20T15:04:37.225Z,99548.51
2019-05-20T15:07:08.533Z,99550.94
2019-05-20T15:09:39.728Z,99556.23
2019-05-20T15:12:10.840Z,99562.12
2019-05-20T15:14:42.621Z,99549.79
2019-05-20T15:17:14.053Z,99551.14
2019-05-20T15:19:45.319Z,99547.22
2019-05-20T15:22:16.468Z,99552.27
2019-05-20T15:24:47.582Z,99518.63
2019-05-20T15:27:18.706Z,99518.63
2019-05-20T15:29:49.833Z,99542.64
2019-05-20T15:32:21.025Z,99528.88
2019-05-20T15:34:52.127Z,99555.80
2019-05-20T15:37:23.245Z,99518.17
2019-05-20T15:39:56.112Z,99532.23
2019-05-20T15:42:28.326Z,99532.23
2019-05-20T15:44:59.626Z,99549.96
2019-05-20T15:47:30.920Z,99550.11
2019-05-20T15:50:05.268Z,99545.70
2019-05-20T15:52:36.033Z,99546.16
2019-05-20T15:55:08.516Z,99547.96
2019-05-20T15:57:40.545Z,99535.98
2019-05-20T16:00:12.409Z,99532.15
2019-05-20T16:02:43.945Z,99530.30
2019-05-20T16:05:15.084Z,99530.95
2019-05-20T16:07:46.266Z,99538.58
2019-05-20T16:10:19.256Z,99538.87
2019-05-20T16:12:51.155Z,99557.89
2019-05-20T16:15:23.382Z,99562.84
2019-05-20T16:17:55.105Z,99562.84
2019-05-20T16:20:27.589Z,99573.79
2019-05-20T16:22:58.965Z,99574.20
2019-05-20T16:25:30.550Z,99569.89
2019-05-20T16:28:01.970Z,99572.89
2019-05-20T16:30:34.967Z,99568.46
2019-05-20T16:33:08.027Z,99559.69
2019-05-20T16:35:40.502Z,99570.12
2019-05-20T16:38:11.901Z,99577.06
2019-05-20T16:40:43.068Z,99582.02
2019-05-20T16:43:16.315Z,99583.25
2019-05-20T16:45:49.093Z,99591.81
2019-05-20T16:48:20.668Z,99557.28
2019-05-20T16:50:53.928Z,99595.03
2019-05-20T16:53:27.709Z,99590.79
2019-05-20T16:56:01.461Z,99588.80
2019-05-20T16:58:32.677Z,99588.55
2019-05-20T17:01:04.018Z,99586.56
2019-05-20T17:03:35.502Z,99580.53
2019-05-20T17:06:06.998Z,99589.46
2019-05-20T17:08:38.251Z,99585.43
2019-05-20T17:11:09.494Z,99571.27
2019-05-20T17:13:40.589Z,99538.05
2019-05-20T17:16:11.702Z,99573.36
2019-05-20T17:18:42.854Z,99579.31
2019-05-20T17:21:13.984Z,99570.97
2019-05-20T17:23:45.280Z,99578.55
2019-05-20T17:26:16.389Z,99585.45
2019-05-20T17:28:47.540Z,99564.49
2019-05-20T17:31:19.033Z,99586.59
2019-05-20T17:33:50.396Z,99582.27
2019-05-20T17:36:21.600Z,99593.63
2019-05-20T17:38:52.904Z,99548.98
2019-05-20T17:41:24.718Z,99579.45
2019-05-20T17:43:56.286Z,99588.14
2019-05-20T17:46:30.040Z,99578.84
2019-05-20T17:49:01.904Z,99584.91
2019-05-20T17:51:34.888Z,99574.34
2019-05-20T17:54:09.075Z,99577.34
2019-05-20T17:56:42.704Z,99583.70
2019-05-20T17:59:17.283Z,99586.92
2019-05-20T18:01:49.417Z,99585.30
2019-05-20T18:04:20.739Z,99603.39
2019-05-20T18:06:52.072Z,99593.97
2019-05-20T18:09:24.818Z,99602.61
2019-05-20T18:11:55.901Z,99602.81
2019-05-20T18:14:27.047Z,99599.73
2019-05-20T18:16:58.271Z,99597.77
2019-05-20T18:19:33.419Z,99602.30
2019-05-20T18:22:04.684Z,99600.13
2019-05-20T18:24:35.878Z,99601.12
2019-05-20T18:27:07.256Z,99606.36
2019-05-20T18:29:38.396Z,99606.56
2019-05-20T18:32:10.066Z,99603.53
2019-05-20T18:34:41.264Z,99608.17
2019-05-20T18:37:12.418Z,99622.14
2019-05-20T18:39:43.681Z,99616.84
2019-05-20T18:42:14.830Z,99622.26
2019-05-20T18:44:46.060Z,99616.89
2019-05-20T18:47:17.307Z,99617.45
2019-05-20T18:49:48.477Z,99617.80
2019-05-20T18:52:19.636Z,99620.59
2019-05-20T18:54:50.817Z,99624.25
2019-05-20T18:57:21.985Z,99625.05
2019-05-20T18:59:54.175Z,99627.02
2019-05-20T19:02:25.295Z,99626.15
2019-05-20T19:04:56.454Z,99629.49
2019-05-20T19:07:27.560Z,99622.61
2019-05-20T19:09:58.637Z,99620.38
2019-05-20T19:12:29.749Z,99623.81
2019-05-20T19:15:00.871Z,99631.52
